Duluth International Airport
KDLH : now visible

Airfield :











YOU CAN JOIN US ON...

 
LOGIN :

Register | Disclaimer

   EN    FR    IT 

 









Legend :    VFR   Marginal VFR   IFR   Intensive IFR   Very Intensive IFR
Visi :
Ceiling :
>= 8 km
>= 3000ft
5 to 8 km
1000 to 3000 ft
1500m to 5 km
500 to 1000 ft
800 to 1500m
200 to 500 ft
< 800m
< 200 ft
Symbols :   Thunderstorms  Fog  Heavy snow  Heavy precipitations  Wind > 20 kt






- Airport Elevation : 1428 ft
- IATA code : DLH


KDLH - Duluth International

CURRENT METAR :
  • 281755Z 31012G25KT 10SM FEW080 23/M01 A2988 RMK AO2 SLP117 60000 T02281006 10244 20150 56018

EXPIRED METARs :
  • 281655Z 31009G27KT 10SM FEW070 23/M01 A2989 RMK AO2 PK WND 29027/1647 SLP119 T02331006
  • 281555Z 32011G18KT 10SM FEW070 22/02 A2992 RMK AO2 SLP128 T02220022

TAF KDLH
Valid from the 28 at 18:00 until the 29 at 18:00 UTC


281742Z 2818/2918 31012G25KT P6SM FEW070
FM290100 31011G20KT P6SM SCT025
KZMP FIR / North America



MET'MAP, your aeronautical weather chart ! - Copyright ORBIFLY December 2007 - Disclaimer

ORBIFLY MET'MAP TEAM :

Programming & Development : Alexandra Zaïnal
Concept & original design : Baudouin d'Aumeries
Assistance for programming : Marc-Olivier Méhu
Technical & hardware support : Manuel Goepfert

Contact : metmap@orbifly.com




SOURCES & CREDITS :

   NOAA       Earth
Advisory